sensor_id;sensor_type;location;lat;lon;timestamp;P1;durP1;ratioP1;P2;durP2;ratioP2
9496;SDS011;4786;51.270;4.456;2022-11-02T00:00:19;7.70;;;2.43;;
9496;SDS011;4786;51.270;4.456;2022-11-02T00:02:46;7.50;;;2.50;;
9496;SDS011;4786;51.270;4.456;2022-11-02T00:05:12;7.47;;;2.30;;
9496;SDS011;4786;51.270;4.456;2022-11-02T00:07:40;5.30;;;2.43;;
9496;SDS011;4786;51.270;4.456;2022-11-02T00:10:08;7.07;;;2.40;;
9496;SDS011;4786;51.270;4.456;2022-11-02T00:12:35;5.30;;;2.00;;
9496;SDS011;4786;51.270;4.456;2022-11-02T00:15:01;7.53;;;2.20;;
9496;SDS011;4786;51.270;4.456;2022-11-02T00:17:28;7.97;;;2.60;;
9496;SDS011;4786;51.270;4.456;2022-11-02T00:19:54;6.13;;;2.20;;
9496;SDS011;4786;51.270;4.456;2022-11-02T00:22:20;8.67;;;2.23;;
9496;SDS011;4786;51.270;4.456;2022-11-02T00:24:46;6.20;;;1.87;;
9496;SDS011;4786;51.270;4.456;2022-11-02T00:27:12;6.17;;;1.90;;
9496;SDS011;4786;51.270;4.456;2022-11-02T00:29:37;6.87;;;1.80;;
9496;SDS011;4786;51.270;4.456;2022-11-02T00:32:03;3.67;;;1.60;;
9496;SDS011;4786;51.270;4.456;2022-11-02T00:34:29;6.37;;;2.10;;
9496;SDS011;4786;51.270;4.456;2022-11-02T00:36:54;5.70;;;2.37;;
9496;SDS011;4786;51.270;4.456;2022-11-02T00:39:20;7.30;;;2.40;;
9496;SDS011;4786;51.270;4.456;2022-11-02T00:41:46;8.13;;;2.00;;
9496;SDS011;4786;51.270;4.456;2022-11-02T00:44:12;8.97;;;2.30;;
9496;SDS011;4786;51.270;4.456;2022-11-02T00:46:38;6.07;;;2.10;;
9496;SDS011;4786;51.270;4.456;2022-11-02T00:49:04;5.37;;;1.63;;
9496;SDS011;4786;51.270;4.456;2022-11-02T00:51:30;7.30;;;2.40;;
9496;SDS011;4786;51.270;4.456;2022-11-02T00:53:55;6.70;;;2.10;;
9496;SDS011;4786;51.270;4.456;2022-11-02T00:56:21;5.77;;;1.87;;
9496;SDS011;4786;51.270;4.456;2022-11-02T00:58:47;7.93;;;2.43;;
9496;SDS011;4786;51.270;4.456;2022-11-02T01:01:13;6.37;;;2.07;;
9496;SDS011;4786;51.270;4.456;2022-11-02T01:03:39;5.97;;;1.87;;
9496;SDS011;4786;51.270;4.456;2022-11-02T01:06:12;5.67;;;2.07;;
9496;SDS011;4786;51.270;4.456;2022-11-02T01:08:39;6.67;;;2.23;;
9496;SDS011;4786;51.270;4.456;2022-11-02T01:11:16;5.73;;;1.73;;
9496;SDS011;4786;51.270;4.456;2022-11-02T01:13:46;6.40;;;1.63;;
9496;SDS011;4786;51.270;4.456;2022-11-02T01:16:15;6.53;;;2.30;;
9496;SDS011;4786;51.270;4.456;2022-11-02T01:18:41;6.03;;;2.20;;
9496;SDS011;4786;51.270;4.456;2022-11-02T01:21:07;8.17;;;2.40;;
9496;SDS011;4786;51.270;4.456;2022-11-02T01:23:34;8.03;;;1.80;;
9496;SDS011;4786;51.270;4.456;2022-11-02T01:26:03;9.23;;;2.30;;
9496;SDS011;4786;51.270;4.456;2022-11-02T01:28:31;8.40;;;1.97;;
9496;SDS011;4786;51.270;4.456;2022-11-02T01:30:57;9.50;;;3.00;;
9496;SDS011;4786;51.270;4.456;2022-11-02T01:33:23;7.57;;;2.20;;
9496;SDS011;4786;51.270;4.456;2022-11-02T01:35:50;7.77;;;1.80;;
9496;SDS011;4786;51.270;4.456;2022-11-02T01:38:16;7.70;;;2.23;;
9496;SDS011;4786;51.270;4.456;2022-11-02T01:40:42;7.70;;;2.53;;
9496;SDS011;4786;51.270;4.456;2022-11-02T01:46:11;6.30;;;2.10;;
9496;SDS011;4786;51.270;4.456;2022-11-02T01:48:43;5.87;;;1.80;;
9496;SDS011;4786;51.270;4.456;2022-11-02T01:51:35;8.73;;;2.53;;
9496;SDS011;4786;51.270;4.456;2022-11-02T01:54:05;9.63;;;2.53;;
9496;SDS011;4786;51.270;4.456;2022-11-02T01:56:34;7.37;;;2.40;;
9496;SDS011;4786;51.270;4.456;2022-11-02T01:59:03;8.20;;;2.23;;
9496;SDS011;4786;51.270;4.456;2022-11-02T02:01:34;9.77;;;2.53;;
9496;SDS011;4786;51.270;4.456;2022-11-02T02:04:00;10.10;;;2.40;;
9496;SDS011;4786;51.270;4.456;2022-11-02T02:06:26;6.40;;;2.37;;
9496;SDS011;4786;51.270;4.456;2022-11-02T02:08:53;5.37;;;2.03;;
9496;SDS011;4786;51.270;4.456;2022-11-02T02:14:26;10.37;;;2.43;;
9496;SDS011;4786;51.270;4.456;2022-11-02T02:24:41;7.43;;;2.80;;
9496;SDS011;4786;51.270;4.456;2022-11-02T02:30:09;9.33;;;2.80;;
9496;SDS011;4786;51.270;4.456;2022-11-02T02:35:13;9.83;;;2.73;;
9496;SDS011;4786;51.270;4.456;2022-11-02T02:40:21;10.50;;;2.93;;
9496;SDS011;4786;51.270;4.456;2022-11-02T02:42:56;17.27;;;3.13;;
9496;SDS011;4786;51.270;4.456;2022-11-02T02:45:46;10.30;;;2.87;;
9496;SDS011;4786;51.270;4.456;2022-11-02T02:48:23;8.20;;;2.50;;
9496;SDS011;4786;51.270;4.456;2022-11-02T02:53:34;10.93;;;3.03;;
9496;SDS011;4786;51.270;4.456;2022-11-02T02:56:10;12.33;;;3.13;;
9496;SDS011;4786;51.270;4.456;2022-11-02T02:58:51;13.77;;;3.20;;
9496;SDS011;4786;51.270;4.456;2022-11-02T03:01:23;10.17;;;2.90;;
9496;SDS011;4786;51.270;4.456;2022-11-02T03:03:50;11.30;;;3.20;;
9496;SDS011;4786;51.270;4.456;2022-11-02T03:06:17;11.00;;;2.87;;
9496;SDS011;4786;51.270;4.456;2022-11-02T03:09:00;13.30;;;2.90;;
9496;SDS011;4786;51.270;4.456;2022-11-02T03:14:59;11.27;;;2.93;;
9496;SDS011;4786;51.270;4.456;2022-11-02T03:20:35;13.50;;;2.93;;
9496;SDS011;4786;51.270;4.456;2022-11-02T03:23:20;13.20;;;3.00;;
9496;SDS011;4786;51.270;4.456;2022-11-02T03:31:16;18.03;;;3.53;;
9496;SDS011;4786;51.270;4.456;2022-11-02T03:33:45;10.90;;;2.90;;
9496;SDS011;4786;51.270;4.456;2022-11-02T03:36:22;12.10;;;3.00;;
9496;SDS011;4786;51.270;4.456;2022-11-02T03:38:59;14.90;;;3.37;;
9496;SDS011;4786;51.270;4.456;2022-11-02T03:41:30;15.43;;;3.63;;
9496;SDS011;4786;51.270;4.456;2022-11-02T03:43:58;12.43;;;3.37;;
9496;SDS011;4786;51.270;4.456;2022-11-02T03:46:30;15.43;;;3.80;;
9496;SDS011;4786;51.270;4.456;2022-11-02T03:48:59;12.47;;;3.20;;
9496;SDS011;4786;51.270;4.456;2022-11-02T03:51:29;10.10;;;2.90;;
9496;SDS011;4786;51.270;4.456;2022-11-02T03:54:11;13.27;;;3.40;;
9496;SDS011;4786;51.270;4.456;2022-11-02T03:56:52;10.43;;;3.00;;
9496;SDS011;4786;51.270;4.456;2022-11-02T03:59:21;11.77;;;3.00;;
9496;SDS011;4786;51.270;4.456;2022-11-02T04:01:48;10.73;;;2.60;;
9496;SDS011;4786;51.270;4.456;2022-11-02T04:04:15;16.40;;;3.43;;
9496;SDS011;4786;51.270;4.456;2022-11-02T04:06:42;13.67;;;3.03;;
9496;SDS011;4786;51.270;4.456;2022-11-02T04:09:10;12.60;;;3.00;;
9496;SDS011;4786;51.270;4.456;2022-11-02T04:11:36;9.97;;;3.10;;
9496;SDS011;4786;51.270;4.456;2022-11-02T04:14:20;11.57;;;3.27;;
9496;SDS011;4786;51.270;4.456;2022-11-02T04:17:07;16.63;;;3.70;;
9496;SDS011;4786;51.270;4.456;2022-11-02T04:19:52;9.83;;;2.90;;
9496;SDS011;4786;51.270;4.456;2022-11-02T04:22:19;15.50;;;3.30;;
9496;SDS011;4786;51.270;4.456;2022-11-02T04:25:04;8.50;;;2.77;;
9496;SDS011;4786;51.270;4.456;2022-11-02T04:27:51;12.93;;;2.90;;
9496;SDS011;4786;51.270;4.456;2022-11-02T04:30:18;11.17;;;3.10;;
9496;SDS011;4786;51.270;4.456;2022-11-02T04:32:45;10.57;;;2.50;;
9496;SDS011;4786;51.270;4.456;2022-11-02T04:35:31;9.63;;;2.67;;
9496;SDS011;4786;51.270;4.456;2022-11-02T04:38:18;9.47;;;2.63;;
9496;SDS011;4786;51.270;4.456;2022-11-02T04:41:02;10.63;;;3.37;;
9496;SDS011;4786;51.270;4.456;2022-11-02T04:43:46;8.10;;;2.97;;
9496;SDS011;4786;51.270;4.456;2022-11-02T04:46:32;8.90;;;2.63;;
9496;SDS011;4786;51.270;4.456;2022-11-02T04:49:19;12.23;;;2.93;;
9496;SDS011;4786;51.270;4.456;2022-11-02T04:51:46;8.67;;;2.90;;
9496;SDS011;4786;51.270;4.456;2022-11-02T04:54:32;11.20;;;2.90;;
9496;SDS011;4786;51.270;4.456;2022-11-02T04:57:17;9.50;;;2.80;;
9496;SDS011;4786;51.270;4.456;2022-11-02T04:59:43;12.70;;;3.10;;
9496;SDS011;4786;51.270;4.456;2022-11-02T05:02:08;13.43;;;3.43;;
9496;SDS011;4786;51.270;4.456;2022-11-02T05:04:54;11.53;;;3.40;;
9496;SDS011;4786;51.270;4.456;2022-11-02T05:07:19;11.03;;;3.10;;
9496;SDS011;4786;51.270;4.456;2022-11-02T05:10:05;12.67;;;2.80;;
9496;SDS011;4786;51.270;4.456;2022-11-02T05:12:57;13.97;;;3.43;;
9496;SDS011;4786;51.270;4.456;2022-11-02T05:15:43;9.57;;;2.77;;
9496;SDS011;4786;51.270;4.456;2022-11-02T05:18:09;13.13;;;3.13;;
9496;SDS011;4786;51.270;4.456;2022-11-02T05:20:56;10.80;;;3.03;;
9496;SDS011;4786;51.270;4.456;2022-11-02T05:23:44;12.80;;;2.83;;
9496;SDS011;4786;51.270;4.456;2022-11-02T05:26:10;10.97;;;3.10;;
9496;SDS011;4786;51.270;4.456;2022-11-02T05:28:56;9.53;;;2.80;;
9496;SDS011;4786;51.270;4.456;2022-11-02T05:31:22;8.93;;;2.30;;
9496;SDS011;4786;51.270;4.456;2022-11-02T05:34:08;10.57;;;2.70;;
9496;SDS011;4786;51.270;4.456;2022-11-02T05:36:33;9.73;;;2.87;;
9496;SDS011;4786;51.270;4.456;2022-11-02T05:38:59;13.40;;;3.27;;
9496;SDS011;4786;51.270;4.456;2022-11-02T05:41:44;9.30;;;2.70;;
9496;SDS011;4786;51.270;4.456;2022-11-02T05:44:30;10.87;;;3.27;;
9496;SDS011;4786;51.270;4.456;2022-11-02T05:47:15;12.63;;;2.90;;
9496;SDS011;4786;51.270;4.456;2022-11-02T05:50:01;7.87;;;2.47;;
9496;SDS011;4786;51.270;4.456;2022-11-02T05:52:47;14.13;;;3.53;;
9496;SDS011;4786;51.270;4.456;2022-11-02T05:55:32;11.07;;;3.33;;
9496;SDS011;4786;51.270;4.456;2022-11-02T05:57:59;9.73;;;2.60;;
9496;SDS011;4786;51.270;4.456;2022-11-02T06:00:44;10.70;;;2.80;;
9496;SDS011;4786;51.270;4.456;2022-11-02T06:03:30;9.13;;;2.87;;
9496;SDS011;4786;51.270;4.456;2022-11-02T06:06:00;16.43;;;3.43;;
9496;SDS011;4786;51.270;4.456;2022-11-02T06:08:30;11.97;;;2.93;;
9496;SDS011;4786;51.270;4.456;2022-11-02T06:11:16;10.67;;;3.37;;
9496;SDS011;4786;51.270;4.456;2022-11-02T06:13:42;11.33;;;3.00;;
9496;SDS011;4786;51.270;4.456;2022-11-02T06:16:27;8.37;;;2.40;;
9496;SDS011;4786;51.270;4.456;2022-11-02T06:18:54;16.50;;;3.03;;
9496;SDS011;4786;51.270;4.456;2022-11-02T06:21:40;10.13;;;2.87;;
9496;SDS011;4786;51.270;4.456;2022-11-02T06:24:25;12.63;;;3.13;;
9496;SDS011;4786;51.270;4.456;2022-11-02T06:26:51;11.17;;;3.23;;
9496;SDS011;4786;51.270;4.456;2022-11-02T06:29:36;9.50;;;2.90;;
9496;SDS011;4786;51.270;4.456;2022-11-02T06:32:22;15.10;;;3.10;;
9496;SDS011;4786;51.270;4.456;2022-11-02T06:35:07;9.80;;;2.80;;
9496;SDS011;4786;51.270;4.456;2022-11-02T06:37:34;9.70;;;3.03;;
9496;SDS011;4786;51.270;4.456;2022-11-02T06:40:19;11.37;;;2.87;;
9496;SDS011;4786;51.270;4.456;2022-11-02T06:43:05;10.93;;;2.87;;
9496;SDS011;4786;51.270;4.456;2022-11-02T06:45:54;14.60;;;2.97;;
9496;SDS011;4786;51.270;4.456;2022-11-02T06:48:41;13.20;;;3.00;;
9496;SDS011;4786;51.270;4.456;2022-11-02T06:51:07;13.87;;;3.03;;
9496;SDS011;4786;51.270;4.456;2022-11-02T06:53:52;11.37;;;2.80;;
9496;SDS011;4786;51.270;4.456;2022-11-02T06:56:18;16.67;;;3.20;;
9496;SDS011;4786;51.270;4.456;2022-11-02T06:58:43;14.20;;;3.30;;
9496;SDS011;4786;51.270;4.456;2022-11-02T07:01:09;14.77;;;3.00;;
9496;SDS011;4786;51.270;4.456;2022-11-02T07:03:35;10.93;;;3.13;;
9496;SDS011;4786;51.270;4.456;2022-11-02T07:06:01;11.53;;;2.93;;
9496;SDS011;4786;51.270;4.456;2022-11-02T07:08:27;13.90;;;3.30;;
9496;SDS011;4786;51.270;4.456;2022-11-02T07:10:53;12.30;;;3.10;;
9496;SDS011;4786;51.270;4.456;2022-11-02T07:13:33;12.63;;;2.93;;
9496;SDS011;4786;51.270;4.456;2022-11-02T07:15:59;13.23;;;3.07;;
9496;SDS011;4786;51.270;4.456;2022-11-02T07:18:25;10.63;;;2.87;;
9496;SDS011;4786;51.270;4.456;2022-11-02T07:20:51;8.43;;;3.27;;
9496;SDS011;4786;51.270;4.456;2022-11-02T07:23:18;14.40;;;3.60;;
9496;SDS011;4786;51.270;4.456;2022-11-02T07:25:47;10.63;;;3.00;;
9496;SDS011;4786;51.270;4.456;2022-11-02T07:28:13;14.03;;;3.07;;
9496;SDS011;4786;51.270;4.456;2022-11-02T07:30:39;12.67;;;3.20;;
9496;SDS011;4786;51.270;4.456;2022-11-02T07:33:05;9.90;;;3.33;;
9496;SDS011;4786;51.270;4.456;2022-11-02T07:35:30;12.10;;;3.43;;
9496;SDS011;4786;51.270;4.456;2022-11-02T07:38:02;12.10;;;3.27;;
9496;SDS011;4786;51.270;4.456;2022-11-02T07:40:30;14.87;;;3.63;;
9496;SDS011;4786;51.270;4.456;2022-11-02T07:42:58;14.93;;;3.70;;
9496;SDS011;4786;51.270;4.456;2022-11-02T07:45:24;11.20;;;3.50;;
9496;SDS011;4786;51.270;4.456;2022-11-02T07:47:52;10.27;;;2.90;;
9496;SDS011;4786;51.270;4.456;2022-11-02T07:50:19;12.03;;;3.30;;
9496;SDS011;4786;51.270;4.456;2022-11-02T07:52:47;11.50;;;2.90;;
9496;SDS011;4786;51.270;4.456;2022-11-02T07:55:15;10.50;;;3.20;;
9496;SDS011;4786;51.270;4.456;2022-11-02T07:57:43;9.30;;;3.20;;
9496;SDS011;4786;51.270;4.456;2022-11-02T08:00:19;8.97;;;3.17;;
9496;SDS011;4786;51.270;4.456;2022-11-02T08:02:46;8.87;;;3.23;;
9496;SDS011;4786;51.270;4.456;2022-11-02T08:05:12;18.23;;;4.00;;
9496;SDS011;4786;51.270;4.456;2022-11-02T08:07:38;13.03;;;3.27;;
9496;SDS011;4786;51.270;4.456;2022-11-02T08:10:05;14.20;;;3.53;;
9496;SDS011;4786;51.270;4.456;2022-11-02T08:12:31;14.10;;;3.40;;
9496;SDS011;4786;51.270;4.456;2022-11-02T08:14:57;13.73;;;3.83;;
9496;SDS011;4786;51.270;4.456;2022-11-02T08:17:23;13.53;;;3.63;;
9496;SDS011;4786;51.270;4.456;2022-11-02T08:19:49;11.83;;;3.57;;
9496;SDS011;4786;51.270;4.456;2022-11-02T08:22:14;12.07;;;3.57;;
9496;SDS011;4786;51.270;4.456;2022-11-02T08:24:40;12.93;;;3.50;;
9496;SDS011;4786;51.270;4.456;2022-11-02T08:27:06;19.27;;;4.07;;
9496;SDS011;4786;51.270;4.456;2022-11-02T08:29:32;14.73;;;3.57;;
9496;SDS011;4786;51.270;4.456;2022-11-02T08:31:59;13.40;;;3.47;;
9496;SDS011;4786;51.270;4.456;2022-11-02T08:34:25;14.10;;;3.30;;
9496;SDS011;4786;51.270;4.456;2022-11-02T08:36:51;17.57;;;4.07;;
9496;SDS011;4786;51.270;4.456;2022-11-02T08:39:17;14.20;;;3.73;;
9496;SDS011;4786;51.270;4.456;2022-11-02T08:41:43;13.27;;;3.57;;
9496;SDS011;4786;51.270;4.456;2022-11-02T08:44:09;14.43;;;3.30;;
9496;SDS011;4786;51.270;4.456;2022-11-02T08:46:35;12.53;;;3.37;;
9496;SDS011;4786;51.270;4.456;2022-11-02T08:49:01;12.67;;;3.97;;
9496;SDS011;4786;51.270;4.456;2022-11-02T08:51:27;14.40;;;3.87;;
9496;SDS011;4786;51.270;4.456;2022-11-02T08:53:53;9.77;;;3.33;;
9496;SDS011;4786;51.270;4.456;2022-11-02T08:56:19;14.13;;;4.27;;
9496;SDS011;4786;51.270;4.456;2022-11-02T08:58:45;14.43;;;4.10;;
9496;SDS011;4786;51.270;4.456;2022-11-02T09:01:11;13.40;;;4.07;;
9496;SDS011;4786;51.270;4.456;2022-11-02T09:03:37;12.07;;;3.53;;
9496;SDS011;4786;51.270;4.456;2022-11-02T09:06:03;17.37;;;4.00;;
9496;SDS011;4786;51.270;4.456;2022-11-02T09:08:29;17.97;;;4.13;;
9496;SDS011;4786;51.270;4.456;2022-11-02T09:11:00;13.73;;;3.20;;
9496;SDS011;4786;51.270;4.456;2022-11-02T09:13:27;16.50;;;4.37;;
9496;SDS011;4786;51.270;4.456;2022-11-02T09:15:55;13.80;;;3.73;;
9496;SDS011;4786;51.270;4.456;2022-11-02T09:18:22;11.03;;;3.57;;
9496;SDS011;4786;51.270;4.456;2022-11-02T09:20:48;19.60;;;3.70;;
9496;SDS011;4786;51.270;4.456;2022-11-02T09:23:15;18.40;;;4.10;;
9496;SDS011;4786;51.270;4.456;2022-11-02T09:25:41;13.60;;;3.17;;
9496;SDS011;4786;51.270;4.456;2022-11-02T09:28:08;14.20;;;3.73;;
9496;SDS011;4786;51.270;4.456;2022-11-02T09:30:35;9.70;;;3.30;;
9496;SDS011;4786;51.270;4.456;2022-11-02T09:33:02;12.17;;;3.80;;
9496;SDS011;4786;51.270;4.456;2022-11-02T09:35:31;14.97;;;3.63;;
9496;SDS011;4786;51.270;4.456;2022-11-02T09:38:02;11.27;;;3.50;;
9496;SDS011;4786;51.270;4.456;2022-11-02T09:41:11;14.13;;;3.73;;
9496;SDS011;4786;51.270;4.456;2022-11-02T09:46:04;12.90;;;3.93;;
9496;SDS011;4786;51.270;4.456;2022-11-02T09:48:47;13.87;;;3.60;;
9496;SDS011;4786;51.270;4.456;2022-11-02T09:51:20;15.93;;;3.80;;
9496;SDS011;4786;51.270;4.456;2022-11-02T09:56:33;8.77;;;2.90;;
9496;SDS011;4786;51.270;4.456;2022-11-02T09:59:01;13.07;;;3.63;;
9496;SDS011;4786;51.270;4.456;2022-11-02T10:07:05;10.00;;;3.40;;
9496;SDS011;4786;51.270;4.456;2022-11-02T10:09:34;9.67;;;3.00;;
9496;SDS011;4786;51.270;4.456;2022-11-02T10:12:14;17.30;;;4.03;;
9496;SDS011;4786;51.270;4.456;2022-11-02T10:14:58;14.00;;;3.97;;
9496;SDS011;4786;51.270;4.456;2022-11-02T10:17:31;12.67;;;3.47;;
9496;SDS011;4786;51.270;4.456;2022-11-02T10:20:02;18.57;;;3.80;;
9496;SDS011;4786;51.270;4.456;2022-11-02T10:22:34;16.10;;;3.20;;
9496;SDS011;4786;51.270;4.456;2022-11-02T10:25:06;14.30;;;3.40;;
9496;SDS011;4786;51.270;4.456;2022-11-02T10:27:35;9.63;;;3.10;;
9496;SDS011;4786;51.270;4.456;2022-11-02T10:30:21;14.97;;;3.50;;
9496;SDS011;4786;51.270;4.456;2022-11-02T10:32:50;13.37;;;3.57;;
9496;SDS011;4786;51.270;4.456;2022-11-02T10:38:37;15.77;;;3.37;;
9496;SDS011;4786;51.270;4.456;2022-11-02T10:52:36;12.93;;;4.10;;
9496;SDS011;4786;51.270;4.456;2022-11-02T10:55:04;12.17;;;3.53;;
9496;SDS011;4786;51.270;4.456;2022-11-02T10:57:38;12.23;;;3.63;;
9496;SDS011;4786;51.270;4.456;2022-11-02T11:03:02;12.23;;;3.80;;
9496;SDS011;4786;51.270;4.456;2022-11-02T11:11:24;13.30;;;3.80;;
9496;SDS011;4786;51.270;4.456;2022-11-02T11:16:38;14.77;;;4.00;;
9496;SDS011;4786;51.270;4.456;2022-11-02T11:25:20;11.27;;;3.20;;
9496;SDS011;4786;51.270;4.456;2022-11-02T11:27:52;15.13;;;4.33;;
9496;SDS011;4786;51.270;4.456;2022-11-02T11:30:29;11.80;;;3.13;;
9496;SDS011;4786;51.270;4.456;2022-11-02T11:32:55;11.77;;;3.90;;
9496;SDS011;4786;51.270;4.456;2022-11-02T11:35:23;12.60;;;3.33;;
9496;SDS011;4786;51.270;4.456;2022-11-02T11:37:56;12.50;;;3.60;;
9496;SDS011;4786;51.270;4.456;2022-11-02T11:40:24;9.77;;;3.63;;
9496;SDS011;4786;51.270;4.456;2022-11-02T11:42:54;14.20;;;3.57;;
9496;SDS011;4786;51.270;4.456;2022-11-02T11:45:22;14.10;;;3.50;;
9496;SDS011;4786;51.270;4.456;2022-11-02T11:47:51;13.97;;;3.83;;
9496;SDS011;4786;51.270;4.456;2022-11-02T11:50:18;14.63;;;4.10;;
9496;SDS011;4786;51.270;4.456;2022-11-02T11:52:45;12.73;;;3.60;;
9496;SDS011;4786;51.270;4.456;2022-11-02T12:00:40;13.70;;;3.63;;
9496;SDS011;4786;51.270;4.456;2022-11-02T12:03:07;10.03;;;3.33;;
9496;SDS011;4786;51.270;4.456;2022-11-02T12:08:21;16.30;;;3.90;;
9496;SDS011;4786;51.270;4.456;2022-11-02T12:22:02;16.23;;;3.23;;
9496;SDS011;4786;51.270;4.456;2022-11-02T12:27:50;11.87;;;3.40;;
9496;SDS011;4786;51.270;4.456;2022-11-02T12:30:17;16.43;;;3.80;;
9496;SDS011;4786;51.270;4.456;2022-11-02T12:32:51;11.50;;;3.70;;
9496;SDS011;4786;51.270;4.456;2022-11-02T12:35:36;13.17;;;3.50;;
9496;SDS011;4786;51.270;4.456;2022-11-02T12:41:16;15.00;;;4.00;;
9496;SDS011;4786;51.270;4.456;2022-11-02T12:43:52;13.67;;;3.17;;
9496;SDS011;4786;51.270;4.456;2022-11-02T12:52:13;13.47;;;3.00;;
9496;SDS011;4786;51.270;4.456;2022-11-02T12:55:01;14.83;;;3.83;;
9496;SDS011;4786;51.270;4.456;2022-11-02T12:57:32;14.37;;;3.77;;
9496;SDS011;4786;51.270;4.456;2022-11-02T13:00:06;15.60;;;3.80;;
9496;SDS011;4786;51.270;4.456;2022-11-02T13:05:29;12.17;;;3.47;;
9496;SDS011;4786;51.270;4.456;2022-11-02T13:10:41;12.43;;;3.30;;
9496;SDS011;4786;51.270;4.456;2022-11-02T13:13:15;16.57;;;3.90;;
9496;SDS011;4786;51.270;4.456;2022-11-02T13:15:45;14.37;;;3.50;;
9496;SDS011;4786;51.270;4.456;2022-11-02T13:18:17;15.30;;;3.43;;
9496;SDS011;4786;51.270;4.456;2022-11-02T13:20:55;15.17;;;3.40;;
9496;SDS011;4786;51.270;4.456;2022-11-02T13:26:00;11.47;;;3.07;;
9496;SDS011;4786;51.270;4.456;2022-11-02T13:31:32;13.47;;;3.37;;
9496;SDS011;4786;51.270;4.456;2022-11-02T13:34:08;13.13;;;2.90;;
9496;SDS011;4786;51.270;4.456;2022-11-02T13:36:38;14.43;;;3.30;;
9496;SDS011;4786;51.270;4.456;2022-11-02T13:39:06;11.30;;;3.07;;
9496;SDS011;4786;51.270;4.456;2022-11-02T13:49:58;10.60;;;3.17;;
9496;SDS011;4786;51.270;4.456;2022-11-02T13:52:30;12.27;;;3.27;;
9496;SDS011;4786;51.270;4.456;2022-11-02T13:55:00;10.83;;;3.03;;
9496;SDS011;4786;51.270;4.456;2022-11-02T14:00:27;12.73;;;2.97;;
9496;SDS011;4786;51.270;4.456;2022-11-02T14:05:24;10.03;;;3.03;;
9496;SDS011;4786;51.270;4.456;2022-11-02T14:07:58;11.90;;;2.97;;
9496;SDS011;4786;51.270;4.456;2022-11-02T14:10:37;11.33;;;3.40;;
9496;SDS011;4786;51.270;4.456;2022-11-02T14:13:04;12.13;;;3.13;;
9496;SDS011;4786;51.270;4.456;2022-11-02T14:15:36;11.33;;;3.10;;
9496;SDS011;4786;51.270;4.456;2022-11-02T14:25:53;9.63;;;2.80;;
9496;SDS011;4786;51.270;4.456;2022-11-02T14:30:52;11.73;;;2.87;;
9496;SDS011;4786;51.270;4.456;2022-11-02T14:36:23;13.40;;;3.33;;
9496;SDS011;4786;51.270;4.456;2022-11-02T14:39:05;14.23;;;2.53;;
9496;SDS011;4786;51.270;4.456;2022-11-02T14:49:29;9.03;;;2.83;;
9496;SDS011;4786;51.270;4.456;2022-11-02T14:54:45;8.10;;;2.70;;
9496;SDS011;4786;51.270;4.456;2022-11-02T14:57:19;10.43;;;2.50;;
9496;SDS011;4786;51.270;4.456;2022-11-02T14:59:51;11.93;;;2.73;;
9496;SDS011;4786;51.270;4.456;2022-11-02T15:02:37;10.30;;;2.83;;
9496;SDS011;4786;51.270;4.456;2022-11-02T15:05:05;7.80;;;2.63;;
9496;SDS011;4786;51.270;4.456;2022-11-02T15:07:33;10.40;;;2.53;;
9496;SDS011;4786;51.270;4.456;2022-11-02T15:12:41;7.83;;;2.53;;
9496;SDS011;4786;51.270;4.456;2022-11-02T15:15:28;11.67;;;2.77;;
9496;SDS011;4786;51.270;4.456;2022-11-02T15:20:25;14.97;;;2.70;;
9496;SDS011;4786;51.270;4.456;2022-11-02T15:25:46;10.73;;;2.77;;
9496;SDS011;4786;51.270;4.456;2022-11-02T15:28:19;11.10;;;2.57;;
9496;SDS011;4786;51.270;4.456;2022-11-02T15:30:54;8.47;;;2.80;;
9496;SDS011;4786;51.270;4.456;2022-11-02T15:36:01;10.30;;;2.80;;
9496;SDS011;4786;51.270;4.456;2022-11-02T15:38:30;7.37;;;2.60;;
9496;SDS011;4786;51.270;4.456;2022-11-02T15:41:04;12.07;;;3.10;;
9496;SDS011;4786;51.270;4.456;2022-11-02T15:44:08;6.47;;;2.40;;
9496;SDS011;4786;51.270;4.456;2022-11-02T15:52:01;11.77;;;3.30;;
9496;SDS011;4786;51.270;4.456;2022-11-02T15:54:44;11.97;;;2.73;;
9496;SDS011;4786;51.270;4.456;2022-11-02T16:00:09;11.83;;;3.00;;
9496;SDS011;4786;51.270;4.456;2022-11-02T16:02:47;9.53;;;3.37;;
9496;SDS011;4786;51.270;4.456;2022-11-02T16:05:22;6.73;;;2.83;;
9496;SDS011;4786;51.270;4.456;2022-11-02T16:07:52;6.97;;;2.47;;
9496;SDS011;4786;51.270;4.456;2022-11-02T16:15:34;11.43;;;3.23;;
9496;SDS011;4786;51.270;4.456;2022-11-02T16:18:00;10.80;;;2.90;;
9496;SDS011;4786;51.270;4.456;2022-11-02T16:20:27;11.47;;;2.90;;
9496;SDS011;4786;51.270;4.456;2022-11-02T16:23:04;10.37;;;2.73;;
9496;SDS011;4786;51.270;4.456;2022-11-02T16:25:35;6.87;;;2.57;;
9496;SDS011;4786;51.270;4.456;2022-11-02T16:28:17;8.40;;;2.33;;
9496;SDS011;4786;51.270;4.456;2022-11-02T16:33:46;8.30;;;2.80;;
9496;SDS011;4786;51.270;4.456;2022-11-02T16:36:20;12.30;;;2.97;;
9496;SDS011;4786;51.270;4.456;2022-11-02T16:41:26;10.20;;;3.20;;
9496;SDS011;4786;51.270;4.456;2022-11-02T16:43:57;9.47;;;3.33;;
9496;SDS011;4786;51.270;4.456;2022-11-02T16:46:39;14.93;;;3.27;;
9496;SDS011;4786;51.270;4.456;2022-11-02T16:49:15;13.13;;;2.73;;
9496;SDS011;4786;51.270;4.456;2022-11-02T16:54:48;7.10;;;2.50;;
9496;SDS011;4786;51.270;4.456;2022-11-02T16:57:19;11.93;;;3.43;;
9496;SDS011;4786;51.270;4.456;2022-11-02T16:59:52;8.20;;;3.13;;
9496;SDS011;4786;51.270;4.456;2022-11-02T17:02:41;13.40;;;3.53;;
9496;SDS011;4786;51.270;4.456;2022-11-02T17:05:21;7.57;;;3.03;;
9496;SDS011;4786;51.270;4.456;2022-11-02T17:07:56;12.63;;;3.72;;
9496;SDS011;4786;51.270;4.456;2022-11-02T17:10:24;12.40;;;3.43;;
9496;SDS011;4786;51.270;4.456;2022-11-02T17:12:53;11.77;;;3.00;;
9496;SDS011;4786;51.270;4.456;2022-11-02T17:15:21;12.60;;;3.60;;
9496;SDS011;4786;51.270;4.456;2022-11-02T17:17:49;7.63;;;2.70;;
9496;SDS011;4786;51.270;4.456;2022-11-02T17:20:40;6.87;;;3.03;;
9496;SDS011;4786;51.270;4.456;2022-11-02T17:23:07;14.70;;;3.13;;
9496;SDS011;4786;51.270;4.456;2022-11-02T17:25:38;11.80;;;2.87;;
9496;SDS011;4786;51.270;4.456;2022-11-02T17:30:58;10.27;;;3.20;;
9496;SDS011;4786;51.270;4.456;2022-11-02T17:33:27;12.53;;;3.00;;
9496;SDS011;4786;51.270;4.456;2022-11-02T17:36:06;14.90;;;3.17;;
9496;SDS011;4786;51.270;4.456;2022-11-02T17:38:32;11.57;;;3.20;;
9496;SDS011;4786;51.270;4.456;2022-11-02T17:40:58;10.90;;;3.37;;
9496;SDS011;4786;51.270;4.456;2022-11-02T17:43:25;10.77;;;3.40;;
9496;SDS011;4786;51.270;4.456;2022-11-02T17:45:52;7.37;;;2.83;;
9496;SDS011;4786;51.270;4.456;2022-11-02T17:48:25;12.23;;;3.37;;
9496;SDS011;4786;51.270;4.456;2022-11-02T17:50:55;6.70;;;2.90;;
9496;SDS011;4786;51.270;4.456;2022-11-02T17:53:23;11.23;;;3.30;;
9496;SDS011;4786;51.270;4.456;2022-11-02T17:55:49;14.33;;;3.43;;
9496;SDS011;4786;51.270;4.456;2022-11-02T17:58:15;13.40;;;3.30;;
9496;SDS011;4786;51.270;4.456;2022-11-02T18:00:41;11.60;;;3.20;;
9496;SDS011;4786;51.270;4.456;2022-11-02T18:03:12;10.27;;;3.10;;
9496;SDS011;4786;51.270;4.456;2022-11-02T18:05:43;11.90;;;2.90;;
9496;SDS011;4786;51.270;4.456;2022-11-02T18:08:09;10.03;;;3.10;;
9496;SDS011;4786;51.270;4.456;2022-11-02T18:10:39;10.70;;;3.00;;
9496;SDS011;4786;51.270;4.456;2022-11-02T18:13:06;9.30;;;3.17;;
9496;SDS011;4786;51.270;4.456;2022-11-02T18:15:39;10.70;;;3.37;;
9496;SDS011;4786;51.270;4.456;2022-11-02T18:18:05;11.00;;;3.23;;
9496;SDS011;4786;51.270;4.456;2022-11-02T18:20:32;11.13;;;3.40;;
9496;SDS011;4786;51.270;4.456;2022-11-02T18:22:58;11.70;;;3.23;;
9496;SDS011;4786;51.270;4.456;2022-11-02T18:25:27;11.13;;;3.30;;
9496;SDS011;4786;51.270;4.456;2022-11-02T18:27:54;11.77;;;3.13;;
9496;SDS011;4786;51.270;4.456;2022-11-02T18:30:21;10.77;;;3.23;;
9496;SDS011;4786;51.270;4.456;2022-11-02T18:32:47;12.47;;;4.10;;
9496;SDS011;4786;51.270;4.456;2022-11-02T18:35:15;11.50;;;4.00;;
9496;SDS011;4786;51.270;4.456;2022-11-02T18:37:42;9.53;;;3.00;;
9496;SDS011;4786;51.270;4.456;2022-11-02T18:40:09;8.40;;;2.80;;
9496;SDS011;4786;51.270;4.456;2022-11-02T18:42:37;9.73;;;3.07;;
9496;SDS011;4786;51.270;4.456;2022-11-02T18:45:03;10.33;;;3.07;;
9496;SDS011;4786;51.270;4.456;2022-11-02T18:47:30;11.67;;;3.37;;